Terminal Aerodrome Forecast
Issued by NWS

Home | Current Version | Previous Version | Graphics & Text | Print | Product List | Glossary On
Versions: 1 2 3 4 5 6 7 8 9 10 11 12 13 14 15 16 17 18
000
FTUS43 KMPX 241723
TAFRNH
TAF
KRNH 241723Z 2418/2518 30017G23KT P6SM OVC012
      TEMPO 2418/2421 3SM -SN BR OVC010
     FM242200 31014G22KT P6SM -SHSN OVC018
     FM250300 31015G22KT P6SM OVC025
     FM250600 29006KT P6SM OVC030
     FM251200 25006KT P6SM SCT100=

USA.gov is the U.S. government's official web portal to all federal, state and local government web resources and services.